sensor_id;sensor_type;location;lat;lon;timestamp;P1;durP1;ratioP1;P2;durP2;ratioP2
71343;SDS011;59146;43.850;25.948;2023-08-17T00:01:25;11.00;;;5.00;;
71343;SDS011;59146;43.850;25.948;2023-08-17T00:03:50;6.63;;;4.47;;
71343;SDS011;59146;43.850;25.948;2023-08-17T00:06:16;12.93;;;4.68;;
71343;SDS011;59146;43.850;25.948;2023-08-17T00:08:42;9.15;;;4.53;;
71343;SDS011;59146;43.850;25.948;2023-08-17T00:11:10;14.35;;;5.25;;
71343;SDS011;59146;43.850;25.948;2023-08-17T00:13:36;10.43;;;4.65;;
71343;SDS011;59146;43.850;25.948;2023-08-17T00:16:01;14.32;;;5.30;;
71343;SDS011;59146;43.850;25.948;2023-08-17T00:18:27;10.65;;;4.90;;
71343;SDS011;59146;43.850;25.948;2023-08-17T00:20:52;9.05;;;4.55;;
71343;SDS011;59146;43.850;25.948;2023-08-17T00:23:18;9.48;;;4.85;;
71343;SDS011;59146;43.850;25.948;2023-08-17T00:25:45;10.60;;;5.45;;
71343;SDS011;59146;43.850;25.948;2023-08-17T00:28:12;10.88;;;5.70;;
71343;SDS011;59146;43.850;25.948;2023-08-17T00:30:38;13.48;;;4.97;;
71343;SDS011;59146;43.850;25.948;2023-08-17T00:33:03;10.60;;;5.05;;
71343;SDS011;59146;43.850;25.948;2023-08-17T00:35:29;8.40;;;5.13;;
71343;SDS011;59146;43.850;25.948;2023-08-17T00:37:54;11.55;;;5.18;;
71343;SDS011;59146;43.850;25.948;2023-08-17T00:40:20;16.13;;;5.15;;
71343;SDS011;59146;43.850;25.948;2023-08-17T00:42:45;15.05;;;5.50;;
71343;SDS011;59146;43.850;25.948;2023-08-17T00:45:11;8.18;;;4.97;;
71343;SDS011;59146;43.850;25.948;2023-08-17T00:47:36;11.00;;;5.57;;
71343;SDS011;59146;43.850;25.948;2023-08-17T00:50:02;10.43;;;5.20;;
71343;SDS011;59146;43.850;25.948;2023-08-17T00:52:28;16.58;;;5.70;;
71343;SDS011;59146;43.850;25.948;2023-08-17T00:54:57;13.73;;;5.90;;
71343;SDS011;59146;43.850;25.948;2023-08-17T00:57:23;10.52;;;5.25;;
71343;SDS011;59146;43.850;25.948;2023-08-17T00:59:48;17.38;;;5.63;;
71343;SDS011;59146;43.850;25.948;2023-08-17T01:02:15;13.90;;;5.60;;
71343;SDS011;59146;43.850;25.948;2023-08-17T01:04:42;14.63;;;4.97;;
71343;SDS011;59146;43.850;25.948;2023-08-17T01:07:08;9.63;;;5.45;;
71343;SDS011;59146;43.850;25.948;2023-08-17T01:09:33;9.18;;;5.32;;
71343;SDS011;59146;43.850;25.948;2023-08-17T01:12:00;15.60;;;4.97;;
71343;SDS011;59146;43.850;25.948;2023-08-17T01:14:39;17.13;;;4.90;;
71343;SDS011;59146;43.850;25.948;2023-08-17T01:17:25;10.55;;;5.32;;
71343;SDS011;59146;43.850;25.948;2023-08-17T01:19:54;15.80;;;5.85;;
71343;SDS011;59146;43.850;25.948;2023-08-17T01:22:22;15.65;;;5.82;;
71343;SDS011;59146;43.850;25.948;2023-08-17T01:24:49;18.52;;;5.70;;
71343;SDS011;59146;43.850;25.948;2023-08-17T01:27:15;12.20;;;5.35;;
71343;SDS011;59146;43.850;25.948;2023-08-17T01:29:40;14.23;;;6.13;;
71343;SDS011;59146;43.850;25.948;2023-08-17T01:32:15;11.63;;;5.10;;
71343;SDS011;59146;43.850;25.948;2023-08-17T01:34:50;18.17;;;6.25;;
71343;SDS011;59146;43.850;25.948;2023-08-17T01:37:22;18.25;;;5.32;;
71343;SDS011;59146;43.850;25.948;2023-08-17T01:39:52;11.13;;;5.20;;
71343;SDS011;59146;43.850;25.948;2023-08-17T01:42:21;12.23;;;5.45;;
71343;SDS011;59146;43.850;25.948;2023-08-17T01:44:48;20.77;;;5.97;;
71343;SDS011;59146;43.850;25.948;2023-08-17T01:47:14;15.38;;;5.40;;
71343;SDS011;59146;43.850;25.948;2023-08-17T01:49:39;14.43;;;5.82;;
71343;SDS011;59146;43.850;25.948;2023-08-17T01:52:05;15.07;;;5.72;;
71343;SDS011;59146;43.850;25.948;2023-08-17T01:54:30;16.75;;;6.03;;
71343;SDS011;59146;43.850;25.948;2023-08-17T01:56:56;13.65;;;5.50;;
71343;SDS011;59146;43.850;25.948;2023-08-17T01:59:21;17.58;;;6.22;;
71343;SDS011;59146;43.850;25.948;2023-08-17T02:01:47;19.63;;;6.00;;
71343;SDS011;59146;43.850;25.948;2023-08-17T02:04:17;10.88;;;5.97;;
71343;SDS011;59146;43.850;25.948;2023-08-17T02:06:42;12.73;;;6.05;;
71343;SDS011;59146;43.850;25.948;2023-08-17T02:09:07;14.50;;;6.03;;
71343;SDS011;59146;43.850;25.948;2023-08-17T02:11:36;11.85;;;5.40;;
71343;SDS011;59146;43.850;25.948;2023-08-17T02:14:01;12.05;;;5.55;;
71343;SDS011;59146;43.850;25.948;2023-08-17T02:16:26;17.55;;;6.30;;
71343;SDS011;59146;43.850;25.948;2023-08-17T02:18:52;12.80;;;6.13;;
71343;SDS011;59146;43.850;25.948;2023-08-17T02:21:17;10.05;;;5.80;;
71343;SDS011;59146;43.850;25.948;2023-08-17T02:23:43;12.15;;;5.75;;
71343;SDS011;59146;43.850;25.948;2023-08-17T02:26:08;14.93;;;5.97;;
71343;SDS011;59146;43.850;25.948;2023-08-17T02:28:34;11.45;;;5.82;;
71343;SDS011;59146;43.850;25.948;2023-08-17T02:30:59;17.38;;;7.20;;
71343;SDS011;59146;43.850;25.948;2023-08-17T02:33:25;10.80;;;7.68;;
71343;SDS011;59146;43.850;25.948;2023-08-17T02:35:50;13.25;;;6.82;;
71343;SDS011;59146;43.850;25.948;2023-08-17T02:38:16;15.63;;;6.75;;
71343;SDS011;59146;43.850;25.948;2023-08-17T02:40:41;13.57;;;6.55;;
71343;SDS011;59146;43.850;25.948;2023-08-17T02:43:07;14.48;;;7.03;;
71343;SDS011;59146;43.850;25.948;2023-08-17T02:45:33;13.05;;;6.53;;
71343;SDS011;59146;43.850;25.948;2023-08-17T02:47:59;18.33;;;7.60;;
71343;SDS011;59146;43.850;25.948;2023-08-17T02:50:24;25.73;;;7.78;;
71343;SDS011;59146;43.850;25.948;2023-08-17T02:52:49;16.50;;;7.43;;
71343;SDS011;59146;43.850;25.948;2023-08-17T02:55:15;12.27;;;6.60;;
71343;SDS011;59146;43.850;25.948;2023-08-17T02:57:40;17.35;;;7.32;;
71343;SDS011;59146;43.850;25.948;2023-08-17T03:00:06;14.73;;;7.72;;
71343;SDS011;59146;43.850;25.948;2023-08-17T03:02:32;11.95;;;6.93;;
71343;SDS011;59146;43.850;25.948;2023-08-17T03:04:57;19.58;;;6.97;;
71343;SDS011;59146;43.850;25.948;2023-08-17T03:07:23;11.27;;;7.07;;
71343;SDS011;59146;43.850;25.948;2023-08-17T03:09:48;11.73;;;7.07;;
71343;SDS011;59146;43.850;25.948;2023-08-17T03:12:14;20.63;;;7.22;;
71343;SDS011;59146;43.850;25.948;2023-08-17T03:14:39;13.95;;;7.60;;
71343;SDS011;59146;43.850;25.948;2023-08-17T03:17:04;14.10;;;7.82;;
71343;SDS011;59146;43.850;25.948;2023-08-17T03:19:30;13.40;;;8.48;;
71343;SDS011;59146;43.850;25.948;2023-08-17T03:21:55;10.52;;;7.22;;
71343;SDS011;59146;43.850;25.948;2023-08-17T03:24:21;18.52;;;9.13;;
71343;SDS011;59146;43.850;25.948;2023-08-17T03:26:46;15.48;;;7.55;;
71343;SDS011;59146;43.850;25.948;2023-08-17T03:29:11;13.02;;;7.82;;
71343;SDS011;59146;43.850;25.948;2023-08-17T03:31:37;15.15;;;7.78;;
71343;SDS011;59146;43.850;25.948;2023-08-17T03:34:02;13.38;;;7.53;;
71343;SDS011;59146;43.850;25.948;2023-08-17T03:36:28;10.52;;;6.50;;
71343;SDS011;59146;43.850;25.948;2023-08-17T03:38:53;19.63;;;7.13;;
71343;SDS011;59146;43.850;25.948;2023-08-17T03:41:20;15.13;;;7.68;;
71343;SDS011;59146;43.850;25.948;2023-08-17T03:43:48;17.35;;;7.22;;
71343;SDS011;59146;43.850;25.948;2023-08-17T03:46:14;16.20;;;7.18;;
71343;SDS011;59146;43.850;25.948;2023-08-17T03:48:39;16.20;;;8.15;;
71343;SDS011;59146;43.850;25.948;2023-08-17T03:51:04;14.80;;;7.25;;
71343;SDS011;59146;43.850;25.948;2023-08-17T03:53:30;12.35;;;6.75;;
71343;SDS011;59146;43.850;25.948;2023-08-17T03:55:58;20.20;;;7.72;;
71343;SDS011;59146;43.850;25.948;2023-08-17T03:58:23;25.15;;;6.82;;
71343;SDS011;59146;43.850;25.948;2023-08-17T04:00:51;10.63;;;7.00;;
71343;SDS011;59146;43.850;25.948;2023-08-17T04:03:18;12.43;;;6.75;;
71343;SDS011;59146;43.850;25.948;2023-08-17T04:05:44;17.75;;;7.03;;
71343;SDS011;59146;43.850;25.948;2023-08-17T04:08:09;17.13;;;8.02;;
71343;SDS011;59146;43.850;25.948;2023-08-17T04:10:35;15.82;;;6.65;;
71343;SDS011;59146;43.850;25.948;2023-08-17T04:13:00;18.00;;;7.07;;
71343;SDS011;59146;43.850;25.948;2023-08-17T04:15:26;15.82;;;6.40;;
71343;SDS011;59146;43.850;25.948;2023-08-17T04:17:51;31.52;;;8.13;;
71343;SDS011;59146;43.850;25.948;2023-08-17T04:20:17;17.20;;;6.40;;
71343;SDS011;59146;43.850;25.948;2023-08-17T04:22:43;15.50;;;6.25;;
71343;SDS011;59146;43.850;25.948;2023-08-17T04:25:09;16.73;;;6.78;;
71343;SDS011;59146;43.850;25.948;2023-08-17T04:27:34;20.27;;;6.43;;
71343;SDS011;59146;43.850;25.948;2023-08-17T04:30:00;17.83;;;6.68;;
71343;SDS011;59146;43.850;25.948;2023-08-17T04:32:26;16.67;;;7.07;;
71343;SDS011;59146;43.850;25.948;2023-08-17T04:34:51;14.10;;;6.30;;
71343;SDS011;59146;43.850;25.948;2023-08-17T04:37:17;13.13;;;6.68;;
71343;SDS011;59146;43.850;25.948;2023-08-17T04:39:42;14.55;;;5.72;;
71343;SDS011;59146;43.850;25.948;2023-08-17T04:42:08;11.15;;;6.32;;
71343;SDS011;59146;43.850;25.948;2023-08-17T04:44:34;10.70;;;6.03;;
71343;SDS011;59146;43.850;25.948;2023-08-17T04:46:59;14.13;;;6.57;;
71343;SDS011;59146;43.850;25.948;2023-08-17T04:49:25;16.38;;;6.63;;
71343;SDS011;59146;43.850;25.948;2023-08-17T04:51:51;15.52;;;6.45;;
71343;SDS011;59146;43.850;25.948;2023-08-17T04:54:17;12.88;;;6.65;;
71343;SDS011;59146;43.850;25.948;2023-08-17T04:56:42;15.70;;;6.30;;
71343;SDS011;59146;43.850;25.948;2023-08-17T04:59:08;20.00;;;5.80;;
71343;SDS011;59146;43.850;25.948;2023-08-17T05:01:34;25.88;;;7.10;;
71343;SDS011;59146;43.850;25.948;2023-08-17T05:04:00;21.38;;;7.63;;
71343;SDS011;59146;43.850;25.948;2023-08-17T05:06:27;12.93;;;6.78;;
71343;SDS011;59146;43.850;25.948;2023-08-17T05:08:53;13.05;;;6.32;;
71343;SDS011;59146;43.850;25.948;2023-08-17T05:11:18;14.73;;;6.80;;
71343;SDS011;59146;43.850;25.948;2023-08-17T05:13:44;16.50;;;6.53;;
71343;SDS011;59146;43.850;25.948;2023-08-17T05:16:09;12.23;;;6.45;;
71343;SDS011;59146;43.850;25.948;2023-08-17T05:18:35;19.65;;;7.53;;
71343;SDS011;59146;43.850;25.948;2023-08-17T05:21:00;17.08;;;7.25;;
71343;SDS011;59146;43.850;25.948;2023-08-17T05:23:26;15.35;;;7.15;;
71343;SDS011;59146;43.850;25.948;2023-08-17T05:25:51;23.95;;;7.55;;
71343;SDS011;59146;43.850;25.948;2023-08-17T05:28:16;26.02;;;9.18;;
71343;SDS011;59146;43.850;25.948;2023-08-17T05:30:42;31.23;;;9.88;;
71343;SDS011;59146;43.850;25.948;2023-08-17T05:33:08;40.72;;;12.63;;
71343;SDS011;59146;43.850;25.948;2023-08-17T05:35:34;35.53;;;10.52;;
71343;SDS011;59146;43.850;25.948;2023-08-17T05:37:59;37.10;;;11.45;;
71343;SDS011;59146;43.850;25.948;2023-08-17T05:40:25;25.10;;;8.20;;
71343;SDS011;59146;43.850;25.948;2023-08-17T05:42:51;21.70;;;7.43;;
71343;SDS011;59146;43.850;25.948;2023-08-17T05:45:16;29.48;;;11.23;;
71343;SDS011;59146;43.850;25.948;2023-08-17T05:47:42;13.13;;;6.28;;
71343;SDS011;59146;43.850;25.948;2023-08-17T05:50:07;12.82;;;6.70;;
71343;SDS011;59146;43.850;25.948;2023-08-17T05:52:33;41.88;;;12.52;;
71343;SDS011;59146;43.850;25.948;2023-08-17T05:54:58;20.08;;;7.30;;
71343;SDS011;59146;43.850;25.948;2023-08-17T05:57:23;20.17;;;7.85;;
71343;SDS011;59146;43.850;25.948;2023-08-17T05:59:49;15.90;;;7.95;;
71343;SDS011;59146;43.850;25.948;2023-08-17T06:02:14;11.85;;;7.47;;
71343;SDS011;59146;43.850;25.948;2023-08-17T06:04:40;14.05;;;7.28;;
71343;SDS011;59146;43.850;25.948;2023-08-17T06:07:05;11.27;;;7.00;;
71343;SDS011;59146;43.850;25.948;2023-08-17T06:09:31;12.73;;;7.60;;
71343;SDS011;59146;43.850;25.948;2023-08-17T06:11:56;13.10;;;7.30;;
71343;SDS011;59146;43.850;25.948;2023-08-17T06:14:22;13.18;;;7.57;;
71343;SDS011;59146;43.850;25.948;2023-08-17T06:16:47;14.75;;;7.60;;
71343;SDS011;59146;43.850;25.948;2023-08-17T06:19:13;10.98;;;7.22;;
71343;SDS011;59146;43.850;25.948;2023-08-17T06:21:38;15.63;;;7.35;;
71343;SDS011;59146;43.850;25.948;2023-08-17T06:24:04;15.25;;;7.50;;
71343;SDS011;59146;43.850;25.948;2023-08-17T06:26:29;19.17;;;7.78;;
71343;SDS011;59146;43.850;25.948;2023-08-17T06:28:55;17.98;;;7.25;;
71343;SDS011;59146;43.850;25.948;2023-08-17T06:31:20;22.55;;;7.70;;
71343;SDS011;59146;43.850;25.948;2023-08-17T06:33:48;19.45;;;8.40;;
71343;SDS011;59146;43.850;25.948;2023-08-17T06:36:13;18.38;;;7.57;;
71343;SDS011;59146;43.850;25.948;2023-08-17T06:38:41;20.27;;;7.82;;
71343;SDS011;59146;43.850;25.948;2023-08-17T06:41:07;9.75;;;7.05;;
71343;SDS011;59146;43.850;25.948;2023-08-17T06:43:33;13.98;;;8.60;;
71343;SDS011;59146;43.850;25.948;2023-08-17T06:45:58;10.95;;;8.02;;
71343;SDS011;59146;43.850;25.948;2023-08-17T06:48:25;13.57;;;7.45;;
71343;SDS011;59146;43.850;25.948;2023-08-17T06:50:51;14.30;;;7.47;;
71343;SDS011;59146;43.850;25.948;2023-08-17T06:53:16;18.35;;;7.53;;
71343;SDS011;59146;43.850;25.948;2023-08-17T06:55:41;13.25;;;7.70;;
71343;SDS011;59146;43.850;25.948;2023-08-17T06:58:07;16.50;;;7.95;;
71343;SDS011;59146;43.850;25.948;2023-08-17T07:00:32;10.20;;;7.10;;
71343;SDS011;59146;43.850;25.948;2023-08-17T07:03:00;11.88;;;8.00;;
71343;SDS011;59146;43.850;25.948;2023-08-17T07:05:26;15.43;;;7.82;;
71343;SDS011;59146;43.850;25.948;2023-08-17T07:07:51;17.38;;;7.72;;
71343;SDS011;59146;43.850;25.948;2023-08-17T07:10:18;15.80;;;7.28;;
71343;SDS011;59146;43.850;25.948;2023-08-17T07:12:43;17.63;;;7.85;;
71343;SDS011;59146;43.850;25.948;2023-08-17T07:15:09;10.27;;;7.45;;
71343;SDS011;59146;43.850;25.948;2023-08-17T07:17:35;8.73;;;7.45;;
71343;SDS011;59146;43.850;25.948;2023-08-17T07:20:02;15.45;;;6.63;;
71343;SDS011;59146;43.850;25.948;2023-08-17T07:22:28;13.52;;;6.93;;
71343;SDS011;59146;43.850;25.948;2023-08-17T07:24:54;13.50;;;6.95;;
71343;SDS011;59146;43.850;25.948;2023-08-17T07:27:19;20.90;;;7.43;;
71343;SDS011;59146;43.850;25.948;2023-08-17T07:29:44;22.60;;;6.82;;
71343;SDS011;59146;43.850;25.948;2023-08-17T07:32:10;12.82;;;6.40;;
71343;SDS011;59146;43.850;25.948;2023-08-17T07:34:36;11.48;;;7.60;;
71343;SDS011;59146;43.850;25.948;2023-08-17T07:37:03;13.77;;;6.93;;
71343;SDS011;59146;43.850;25.948;2023-08-17T07:39:29;10.43;;;6.82;;
71343;SDS011;59146;43.850;25.948;2023-08-17T07:41:55;8.23;;;6.68;;
71343;SDS011;59146;43.850;25.948;2023-08-17T07:44:20;12.85;;;7.72;;
71343;SDS011;59146;43.850;25.948;2023-08-17T07:46:46;15.05;;;6.90;;
71343;SDS011;59146;43.850;25.948;2023-08-17T07:49:11;11.80;;;7.22;;
71343;SDS011;59146;43.850;25.948;2023-08-17T07:51:36;12.90;;;7.85;;
71343;SDS011;59146;43.850;25.948;2023-08-17T07:54:02;12.70;;;6.65;;
71343;SDS011;59146;43.850;25.948;2023-08-17T07:56:27;17.92;;;7.28;;
71343;SDS011;59146;43.850;25.948;2023-08-17T07:58:53;10.60;;;6.93;;
71343;SDS011;59146;43.850;25.948;2023-08-17T08:01:19;8.27;;;6.68;;
71343;SDS011;59146;43.850;25.948;2023-08-17T08:03:45;13.07;;;7.20;;
71343;SDS011;59146;43.850;25.948;2023-08-17T08:06:11;15.80;;;6.95;;
71343;SDS011;59146;43.850;25.948;2023-08-17T08:08:37;10.40;;;7.15;;
71343;SDS011;59146;43.850;25.948;2023-08-17T08:11:03;16.20;;;7.43;;
71343;SDS011;59146;43.850;25.948;2023-08-17T08:13:29;10.70;;;7.22;;
71343;SDS011;59146;43.850;25.948;2023-08-17T08:15:55;10.30;;;7.32;;
71343;SDS011;59146;43.850;25.948;2023-08-17T08:18:20;12.15;;;7.55;;
71343;SDS011;59146;43.850;25.948;2023-08-17T08:20:46;16.50;;;7.63;;
71343;SDS011;59146;43.850;25.948;2023-08-17T08:23:11;11.73;;;6.22;;
71343;SDS011;59146;43.850;25.948;2023-08-17T08:25:36;16.60;;;7.85;;
71343;SDS011;59146;43.850;25.948;2023-08-17T08:28:02;12.95;;;6.55;;
71343;SDS011;59146;43.850;25.948;2023-08-17T08:30:27;8.32;;;6.60;;
71343;SDS011;59146;43.850;25.948;2023-08-17T08:32:53;10.65;;;6.10;;
71343;SDS011;59146;43.850;25.948;2023-08-17T08:35:20;14.30;;;6.80;;
71343;SDS011;59146;43.850;25.948;2023-08-17T08:37:47;13.05;;;7.03;;
71343;SDS011;59146;43.850;25.948;2023-08-17T08:40:13;7.75;;;6.07;;
71343;SDS011;59146;43.850;25.948;2023-08-17T08:42:41;9.07;;;6.45;;
71343;SDS011;59146;43.850;25.948;2023-08-17T08:45:07;12.02;;;6.00;;
71343;SDS011;59146;43.850;25.948;2023-08-17T08:47:33;10.13;;;6.03;;
71343;SDS011;59146;43.850;25.948;2023-08-17T08:50:01;11.05;;;5.55;;
71343;SDS011;59146;43.850;25.948;2023-08-17T08:52:35;13.98;;;6.05;;
71343;SDS011;59146;43.850;25.948;2023-08-17T08:55:15;12.32;;;6.22;;
71343;SDS011;59146;43.850;25.948;2023-08-17T08:57:43;10.23;;;6.43;;
71343;SDS011;59146;43.850;25.948;2023-08-17T09:00:09;19.52;;;5.65;;
71343;SDS011;59146;43.850;25.948;2023-08-17T09:02:36;10.82;;;6.15;;
71343;SDS011;59146;43.850;25.948;2023-08-17T09:05:02;20.98;;;6.22;;
71343;SDS011;59146;43.850;25.948;2023-08-17T09:07:31;12.00;;;5.55;;
71343;SDS011;59146;43.850;25.948;2023-08-17T09:09:58;10.73;;;5.20;;
71343;SDS011;59146;43.850;25.948;2023-08-17T09:12:23;7.13;;;5.40;;
71343;SDS011;59146;43.850;25.948;2023-08-17T09:14:49;12.05;;;5.03;;
71343;SDS011;59146;43.850;25.948;2023-08-17T09:17:22;8.10;;;4.75;;
71343;SDS011;59146;43.850;25.948;2023-08-17T09:19:48;12.90;;;5.90;;
71343;SDS011;59146;43.850;25.948;2023-08-17T09:22:16;7.90;;;5.18;;
71343;SDS011;59146;43.850;25.948;2023-08-17T09:24:48;10.68;;;4.35;;
71343;SDS011;59146;43.850;25.948;2023-08-17T09:27:13;11.50;;;4.93;;
71343;SDS011;59146;43.850;25.948;2023-08-17T09:29:40;10.98;;;4.25;;
71343;SDS011;59146;43.850;25.948;2023-08-17T09:32:08;8.73;;;4.25;;
71343;SDS011;59146;43.850;25.948;2023-08-17T09:34:35;6.65;;;4.30;;
71343;SDS011;59146;43.850;25.948;2023-08-17T09:37:03;10.68;;;4.80;;
71343;SDS011;59146;43.850;25.948;2023-08-17T09:39:29;10.48;;;4.53;;
71343;SDS011;59146;43.850;25.948;2023-08-17T09:41:55;8.13;;;4.65;;
71343;SDS011;59146;43.850;25.948;2023-08-17T09:44:21;11.48;;;4.72;;
71343;SDS011;59146;43.850;25.948;2023-08-17T09:46:47;7.90;;;4.53;;
71343;SDS011;59146;43.850;25.948;2023-08-17T09:49:12;7.82;;;4.43;;
71343;SDS011;59146;43.850;25.948;2023-08-17T09:51:41;7.53;;;4.32;;
71343;SDS011;59146;43.850;25.948;2023-08-17T09:54:07;6.28;;;4.70;;
71343;SDS011;59146;43.850;25.948;2023-08-17T09:56:33;7.72;;;3.65;;
71343;SDS011;59146;43.850;25.948;2023-08-17T09:58:59;6.88;;;4.13;;
71343;SDS011;59146;43.850;25.948;2023-08-17T10:01:25;10.50;;;3.85;;
71343;SDS011;59146;43.850;25.948;2023-08-17T10:03:54;5.57;;;4.22;;
71343;SDS011;59146;43.850;25.948;2023-08-17T10:06:22;6.25;;;4.32;;
71343;SDS011;59146;43.850;25.948;2023-08-17T10:08:51;6.35;;;4.28;;
71343;SDS011;59146;43.850;25.948;2023-08-17T10:11:19;5.18;;;4.00;;
71343;SDS011;59146;43.850;25.948;2023-08-17T10:14:02;7.57;;;4.68;;
71343;SDS011;59146;43.850;25.948;2023-08-17T10:16:45;6.38;;;4.78;;
71343;SDS011;59146;43.850;25.948;2023-08-17T10:21:43;6.40;;;3.70;;
71343;SDS011;59146;43.850;25.948;2023-08-17T10:24:12;5.28;;;3.80;;
71343;SDS011;59146;43.850;25.948;2023-08-17T10:26:38;8.27;;;3.70;;
71343;SDS011;59146;43.850;25.948;2023-08-17T10:29:04;7.68;;;3.55;;
71343;SDS011;59146;43.850;25.948;2023-08-17T10:31:34;7.28;;;3.63;;
71343;SDS011;59146;43.850;25.948;2023-08-17T10:33:59;10.32;;;3.78;;
71343;SDS011;59146;43.850;25.948;2023-08-17T10:36:26;6.43;;;3.85;;
71343;SDS011;59146;43.850;25.948;2023-08-17T10:41:47;8.40;;;4.03;;
71343;SDS011;59146;43.850;25.948;2023-08-17T10:44:14;10.02;;;3.35;;
71343;SDS011;59146;43.850;25.948;2023-08-17T10:46:39;8.13;;;4.00;;
71343;SDS011;59146;43.850;25.948;2023-08-17T10:49:06;13.70;;;4.07;;
71343;SDS011;59146;43.850;25.948;2023-08-17T10:52:04;10.18;;;3.85;;
71343;SDS011;59146;43.850;25.948;2023-08-17T10:54:41;8.02;;;3.45;;
71343;SDS011;59146;43.850;25.948;2023-08-17T11:02:33;5.50;;;3.60;;
71343;SDS011;59146;43.850;25.948;2023-08-17T11:05:00;4.60;;;3.83;;
71343;SDS011;59146;43.850;25.948;2023-08-17T11:07:26;10.52;;;3.80;;
71343;SDS011;59146;43.850;25.948;2023-08-17T11:09:53;9.40;;;4.03;;
71343;SDS011;59146;43.850;25.948;2023-08-17T11:12:26;8.25;;;3.63;;
71343;SDS011;59146;43.850;25.948;2023-08-17T11:14:51;6.25;;;3.42;;
71343;SDS011;59146;43.850;25.948;2023-08-17T11:17:19;4.88;;;3.30;;
71343;SDS011;59146;43.850;25.948;2023-08-17T11:19:46;10.57;;;3.80;;
71343;SDS011;59146;43.850;25.948;2023-08-17T11:22:12;7.25;;;4.15;;
71343;SDS011;59146;43.850;25.948;2023-08-17T11:24:37;7.85;;;3.50;;
71343;SDS011;59146;43.850;25.948;2023-08-17T11:27:05;7.00;;;3.60;;
71343;SDS011;59146;43.850;25.948;2023-08-17T11:29:31;6.97;;;4.13;;
71343;SDS011;59146;43.850;25.948;2023-08-17T11:31:57;5.07;;;3.55;;
71343;SDS011;59146;43.850;25.948;2023-08-17T11:34:23;12.35;;;3.78;;
71343;SDS011;59146;43.850;25.948;2023-08-17T11:36:48;6.22;;;3.78;;
71343;SDS011;59146;43.850;25.948;2023-08-17T11:39:14;12.50;;;4.40;;
71343;SDS011;59146;43.850;25.948;2023-08-17T11:41:39;5.30;;;3.80;;
71343;SDS011;59146;43.850;25.948;2023-08-17T11:44:05;4.47;;;3.35;;
71343;SDS011;59146;43.850;25.948;2023-08-17T11:46:31;8.13;;;3.40;;
71343;SDS011;59146;43.850;25.948;2023-08-17T11:49:00;6.57;;;3.72;;
71343;SDS011;59146;43.850;25.948;2023-08-17T11:51:29;6.07;;;3.38;;
71343;SDS011;59146;43.850;25.948;2023-08-17T11:53:58;6.68;;;3.88;;
71343;SDS011;59146;43.850;25.948;2023-08-17T11:56:24;5.50;;;3.78;;
71343;SDS011;59146;43.850;25.948;2023-08-17T11:58:49;9.52;;;3.65;;
71343;SDS011;59146;43.850;25.948;2023-08-17T12:01:14;8.30;;;3.47;;
71343;SDS011;59146;43.850;25.948;2023-08-17T12:03:43;4.70;;;3.50;;
71343;SDS011;59146;43.850;25.948;2023-08-17T12:06:09;5.53;;;3.08;;
71343;SDS011;59146;43.850;25.948;2023-08-17T12:08:37;5.20;;;3.25;;
71343;SDS011;59146;43.850;25.948;2023-08-17T12:11:03;3.40;;;3.10;;
71343;SDS011;59146;43.850;25.948;2023-08-17T12:13:29;7.13;;;3.10;;
71343;SDS011;59146;43.850;25.948;2023-08-17T12:15:59;8.30;;;3.10;;
71343;SDS011;59146;43.850;25.948;2023-08-17T12:18:25;6.95;;;3.33;;
71343;SDS011;59146;43.850;25.948;2023-08-17T12:20:54;8.50;;;3.15;;
71343;SDS011;59146;43.850;25.948;2023-08-17T12:23:20;6.32;;;2.80;;
71343;SDS011;59146;43.850;25.948;2023-08-17T12:25:45;13.57;;;3.60;;
71343;SDS011;59146;43.850;25.948;2023-08-17T12:28:14;5.22;;;2.78;;
71343;SDS011;59146;43.850;25.948;2023-08-17T12:30:39;7.97;;;3.10;;
71343;SDS011;59146;43.850;25.948;2023-08-17T12:33:05;7.03;;;2.60;;
71343;SDS011;59146;43.850;25.948;2023-08-17T12:35:31;5.75;;;3.03;;
71343;SDS011;59146;43.850;25.948;2023-08-17T12:37:57;8.43;;;3.15;;
71343;SDS011;59146;43.850;25.948;2023-08-17T12:40:23;16.70;;;4.35;;
71343;SDS011;59146;43.850;25.948;2023-08-17T12:42:49;7.70;;;3.10;;
71343;SDS011;59146;43.850;25.948;2023-08-17T12:45:15;11.30;;;3.70;;
71343;SDS011;59146;43.850;25.948;2023-08-17T12:47:41;7.60;;;3.78;;
71343;SDS011;59146;43.850;25.948;2023-08-17T12:50:09;8.95;;;3.70;;
71343;SDS011;59146;43.850;25.948;2023-08-17T12:52:35;6.28;;;3.70;;
71343;SDS011;59146;43.850;25.948;2023-08-17T12:55:01;11.98;;;3.40;;
71343;SDS011;59146;43.850;25.948;2023-08-17T12:57:26;8.85;;;3.15;;
71343;SDS011;59146;43.850;25.948;2023-08-17T12:59:52;5.85;;;3.40;;
71343;SDS011;59146;43.850;25.948;2023-08-17T13:02:19;3.13;;;2.45;;
71343;SDS011;59146;43.850;25.948;2023-08-17T13:04:45;5.50;;;2.92;;
71343;SDS011;59146;43.850;25.948;2023-08-17T13:07:10;4.93;;;3.15;;
71343;SDS011;59146;43.850;25.948;2023-08-17T13:09:35;9.55;;;3.25;;
71343;SDS011;59146;43.850;25.948;2023-08-17T13:12:01;5.68;;;3.55;;
71343;SDS011;59146;43.850;25.948;2023-08-17T13:14:26;3.78;;;3.30;;
71343;SDS011;59146;43.850;25.948;2023-08-17T13:16:52;5.53;;;3.22;;
71343;SDS011;59146;43.850;25.948;2023-08-17T13:19:17;8.55;;;3.13;;
71343;SDS011;59146;43.850;25.948;2023-08-17T13:21:44;6.80;;;2.90;;
71343;SDS011;59146;43.850;25.948;2023-08-17T13:24:09;6.63;;;2.85;;
71343;SDS011;59146;43.850;25.948;2023-08-17T13:26:35;5.15;;;3.33;;
71343;SDS011;59146;43.850;25.948;2023-08-17T13:29:00;5.25;;;3.03;;
71343;SDS011;59146;43.850;25.948;2023-08-17T13:31:26;8.43;;;3.40;;
71343;SDS011;59146;43.850;25.948;2023-08-17T13:33:52;9.27;;;3.83;;
71343;SDS011;59146;43.850;25.948;2023-08-17T13:36:18;5.88;;;3.38;;
71343;SDS011;59146;43.850;25.948;2023-08-17T13:38:43;7.20;;;3.28;;
71343;SDS011;59146;43.850;25.948;2023-08-17T13:41:10;6.13;;;3.63;;
71343;SDS011;59146;43.850;25.948;2023-08-17T13:43:35;6.32;;;4.07;;
71343;SDS011;59146;43.850;25.948;2023-08-17T13:46:01;11.82;;;4.00;;
71343;SDS011;59146;43.850;25.948;2023-08-17T13:48:26;6.70;;;3.80;;
71343;SDS011;59146;43.850;25.948;2023-08-17T13:50:52;7.82;;;3.30;;
71343;SDS011;59146;43.850;25.948;2023-08-17T13:53:17;5.50;;;3.30;;
71343;SDS011;59146;43.850;25.948;2023-08-17T13:55:42;5.65;;;3.20;;
71343;SDS011;59146;43.850;25.948;2023-08-17T13:58:08;16.85;;;3.78;;
71343;SDS011;59146;43.850;25.948;2023-08-17T14:00:35;11.40;;;3.78;;
71343;SDS011;59146;43.850;25.948;2023-08-17T14:03:01;10.90;;;3.92;;
71343;SDS011;59146;43.850;25.948;2023-08-17T14:05:27;8.95;;;3.67;;
71343;SDS011;59146;43.850;25.948;2023-08-17T14:07:52;14.55;;;4.10;;
71343;SDS011;59146;43.850;25.948;2023-08-17T14:10:17;12.48;;;4.43;;
71343;SDS011;59146;43.850;25.948;2023-08-17T14:12:43;7.90;;;4.20;;
71343;SDS011;59146;43.850;25.948;2023-08-17T14:15:08;10.10;;;3.70;;
71343;SDS011;59146;43.850;25.948;2023-08-17T14:17:36;7.63;;;3.65;;
71343;SDS011;59146;43.850;25.948;2023-08-17T14:20:02;8.95;;;3.88;;
71343;SDS011;59146;43.850;25.948;2023-08-17T14:22:29;13.60;;;4.55;;
71343;SDS011;59146;43.850;25.948;2023-08-17T14:24:55;10.52;;;3.90;;
71343;SDS011;59146;43.850;25.948;2023-08-17T14:27:20;5.97;;;3.72;;
71343;SDS011;59146;43.850;25.948;2023-08-17T14:29:45;5.60;;;3.53;;
71343;SDS011;59146;43.850;25.948;2023-08-17T14:41:15;6.72;;;4.00;;